createdAt,value
2024-04-14T00:00:27.267Z,77.7
2024-04-14T00:01:41.559Z,77.2
2024-04-14T00:02:55.852Z,77.4
2024-04-14T00:04:10.144Z,77.5
2024-04-14T00:05:24.437Z,77.4
2024-04-14T00:06:38.730Z,77.3
2024-04-14T00:07:53.022Z,77.2
2024-04-14T00:09:07.315Z,77
2024-04-14T00:10:21.607Z,76.7
2024-04-14T00:11:35.900Z,76.9
2024-04-14T00:12:50.193Z,76.8
2024-04-14T00:14:04.486Z,76.9
2024-04-14T00:15:18.778Z,77.2
2024-04-14T00:16:33.071Z,77.2
2024-04-14T00:17:47.363Z,77
2024-04-14T00:19:01.656Z,77.1
2024-04-14T00:20:15.949Z,77
2024-04-14T00:21:30.241Z,77.1
2024-04-14T00:22:44.534Z,77.3
2024-04-14T00:23:58.826Z,77.1
2024-04-14T00:25:13.119Z,77.2
2024-04-14T00:26:27.411Z,76.8
2024-04-14T00:27:41.704Z,77
2024-04-14T00:28:55.997Z,76.8
2024-04-14T00:30:10.289Z,76.7
2024-04-14T00:31:24.582Z,76.5
2024-04-14T00:32:38.874Z,76.3
2024-04-14T00:33:53.167Z,76.3
2024-04-14T00:35:07.460Z,75.8
2024-04-14T00:36:21.752Z,76
2024-04-14T00:37:36.045Z,76.2
2024-04-14T00:38:50.337Z,76
2024-04-14T00:40:04.630Z,76.5
2024-04-14T00:41:18.922Z,76.3
2024-04-14T00:42:33.215Z,76.2
2024-04-14T00:43:47.508Z,76.3
2024-04-14T00:45:01.800Z,76
2024-04-14T00:46:16.093Z,76.2
2024-04-14T00:47:30.385Z,76.2
2024-04-14T00:48:44.678Z,76
2024-04-14T00:49:58.971Z,75.8
2024-04-14T00:51:13.263Z,76
2024-04-14T00:52:27.556Z,76
2024-04-14T00:53:41.848Z,75.5
2024-04-14T00:54:56.141Z,75.8
2024-04-14T00:56:10.434Z,76
2024-04-14T00:57:24.726Z,76
2024-04-14T00:58:39.019Z,76.3
2024-04-14T00:59:53.312Z,76.3
2024-04-14T01:02:21.897Z,76.5
2024-04-14T01:03:36.189Z,76.3
2024-04-14T01:04:50.482Z,76.2
2024-04-14T01:06:04.774Z,76.2
2024-04-14T01:07:19.067Z,76.3
2024-04-14T01:08:33.360Z,76.5
2024-04-14T01:09:47.652Z,76.2
2024-04-14T01:11:01.945Z,76.1
2024-04-14T01:12:16.237Z,76.1
2024-04-14T01:13:30.530Z,76.3
2024-04-14T01:14:44.822Z,76.1
2024-04-14T01:15:59.115Z,76.2
2024-04-14T01:17:13.407Z,76
2024-04-14T01:18:27.700Z,75.9
2024-04-14T01:19:41.993Z,76.1
2024-04-14T01:20:56.285Z,76.3
2024-04-14T01:22:10.578Z,76.2
2024-04-14T01:23:24.870Z,76.1
2024-04-14T01:24:39.162Z,76.2
2024-04-14T01:25:53.455Z,76.1
2024-04-14T01:27:07.747Z,75.7
2024-04-14T01:28:22.040Z,76.3
2024-04-14T01:29:36.333Z,76.2
2024-04-14T01:30:50.625Z,76.2
2024-04-14T01:32:04.918Z,76.1
2024-04-14T01:33:19.210Z,76.3
2024-04-14T01:34:33.503Z,76.3
2024-04-14T01:35:47.796Z,76.5
2024-04-14T01:38:16.381Z,76.4
2024-04-14T01:39:30.674Z,76.3
2024-04-14T01:40:44.966Z,76.4
2024-04-14T01:41:59.259Z,76.5
2024-04-14T01:43:13.551Z,77.2
2024-04-14T01:44:27.844Z,76.7
2024-04-14T01:45:42.136Z,76.7
2024-04-14T01:46:56.429Z,76.8
2024-04-14T01:48:10.722Z,76.9
2024-04-14T01:49:25.014Z,76.8
2024-04-14T01:50:39.307Z,77
2024-04-14T01:51:53.599Z,76.9
2024-04-14T01:53:07.892Z,76.7
2024-04-14T01:54:22.184Z,76.8
2024-04-14T01:55:36.477Z,77
2024-04-14T01:56:50.770Z,77.1
2024-04-14T01:58:05.063Z,77.4
2024-04-14T01:59:19.355Z,77.4
2024-04-14T02:00:33.648Z,77.5
2024-04-14T02:01:47.940Z,77.5
2024-04-14T02:03:02.233Z,77.5
2024-04-14T02:04:16.526Z,77.5
2024-04-14T02:05:30.818Z,77.3
2024-04-14T02:06:45.111Z,77.4
2024-04-14T02:07:59.404Z,77.6
2024-04-14T02:09:13.696Z,77.5
2024-04-14T02:10:27.989Z,76.9
2024-04-14T02:11:42.282Z,77.1
2024-04-14T02:12:56.574Z,76.7
2024-04-14T02:14:10.867Z,77.1
2024-04-14T02:15:25.159Z,76.7
2024-04-14T02:16:39.452Z,76.9
2024-04-14T02:17:53.745Z,77
2024-04-14T02:19:08.037Z,76.8
2024-04-14T02:20:22.330Z,77.2
2024-04-14T02:21:36.623Z,77.5
2024-04-14T02:22:50.915Z,77
2024-04-14T02:24:05.208Z,77.5
2024-04-14T02:25:19.501Z,77.3
2024-04-14T02:26:32.815Z,77.2
2024-04-14T02:27:47.107Z,77.5
2024-04-14T02:29:01.400Z,77.7
2024-04-14T02:30:15.693Z,77.7
2024-04-14T02:31:29.985Z,77.8
2024-04-14T02:32:44.278Z,77.7
2024-04-14T02:33:58.571Z,77.7
2024-04-14T02:36:27.156Z,77.7
2024-04-14T02:37:41.449Z,77.2
2024-04-14T02:38:55.742Z,77.5
2024-04-14T02:40:10.035Z,77.6
2024-04-14T02:41:24.327Z,77.7
2024-04-14T02:42:38.620Z,77.6
2024-04-14T02:43:52.913Z,77.6
2024-04-14T02:45:07.206Z,77.6
2024-04-14T02:46:21.498Z,77.7
2024-04-14T02:47:35.791Z,77.6
2024-04-14T02:48:50.084Z,77.7
2024-04-14T02:50:04.377Z,77.7
2024-04-14T02:52:32.962Z,78.1
2024-04-14T02:53:47.255Z,77.7
2024-04-14T02:55:01.547Z,77.8
2024-04-14T02:56:15.840Z,78
2024-04-14T02:57:30.133Z,78
2024-04-14T02:58:44.426Z,77.6
2024-04-14T02:59:58.718Z,77.7
2024-04-14T03:01:13.011Z,77.7
2024-04-14T03:02:27.304Z,77.7
2024-04-14T03:03:41.596Z,77.7
2024-04-14T03:04:55.889Z,77.8
2024-04-14T03:06:10.182Z,77.8
2024-04-14T03:07:24.474Z,77.5
2024-04-14T03:08:38.767Z,77.5
2024-04-14T03:09:53.060Z,77.4
2024-04-14T03:11:07.354Z,77.4
2024-04-14T03:12:21.646Z,77.5
2024-04-14T03:13:35.939Z,77.7
2024-04-14T03:14:50.232Z,77.5
2024-04-14T03:16:04.524Z,77.4
2024-04-14T03:17:18.817Z,77.5
2024-04-14T03:18:33.110Z,77.7
2024-04-14T03:19:47.402Z,77.8
2024-04-14T03:21:01.695Z,77.6
2024-04-14T03:22:15.988Z,77.5
2024-04-14T03:23:30.281Z,77.5
2024-04-14T03:24:44.573Z,77.4
2024-04-14T03:25:58.866Z,77.4
2024-04-14T03:27:13.159Z,77.6
2024-04-14T03:29:41.744Z,77.5
2024-04-14T03:30:56.037Z,77.8
2024-04-14T03:32:10.330Z,78
2024-04-14T03:33:24.623Z,77.9
2024-04-14T03:34:38.915Z,77.9
2024-04-14T03:35:53.208Z,77.5
2024-04-14T03:37:07.500Z,78
2024-04-14T03:38:21.793Z,77.8
2024-04-14T03:39:36.086Z,77.4
2024-04-14T03:40:50.379Z,77.7
2024-04-14T03:42:04.672Z,77.7
2024-04-14T03:43:18.911Z,77.9
2024-04-14T03:44:33.204Z,77.7
2024-04-14T03:45:47.443Z,77.8
2024-04-14T03:47:01.692Z,77.9
2024-04-14T03:48:15.931Z,78.1
2024-04-14T03:49:30.170Z,78.3
2024-04-14T03:50:44.463Z,78.3
2024-04-14T03:51:58.713Z,78.3
2024-04-14T03:53:12.952Z,77.9
2024-04-14T03:54:27.202Z,77.9
2024-04-14T03:55:41.442Z,77.8
2024-04-14T03:56:55.680Z,77.9
2024-04-14T03:58:09.920Z,78.1
2024-04-14T03:59:24.158Z,78.1
2024-04-14T04:00:38.397Z,77.9
2024-04-14T04:01:52.636Z,77.8
2024-04-14T04:03:06.875Z,77.8
2024-04-14T04:04:21.113Z,77.9
2024-04-14T04:05:35.352Z,77.8
2024-04-14T04:06:49.591Z,77.6
2024-04-14T04:08:03.830Z,77.7
2024-04-14T04:09:18.069Z,77.5
2024-04-14T04:10:32.307Z,77.5
2024-04-14T04:11:46.546Z,77.4
2024-04-14T04:13:00.785Z,77.2
2024-04-14T04:14:15.024Z,77.1
2024-04-14T04:15:29.262Z,77
2024-04-14T04:16:43.501Z,76.6
2024-04-14T04:17:57.740Z,76.5
2024-04-14T04:19:11.979Z,76.4
2024-04-14T04:20:26.218Z,76.1
2024-04-14T04:21:40.456Z,76.1
2024-04-14T04:22:54.695Z,76
2024-04-14T04:24:08.934Z,76.2
2024-04-14T04:25:23.173Z,75.9
2024-04-14T04:26:37.411Z,76
2024-04-14T04:27:51.651Z,75.9
2024-04-14T04:29:05.889Z,75.9
2024-04-14T04:30:20.128Z,75.8
2024-04-14T04:31:34.367Z,75.9
2024-04-14T04:32:48.606Z,75.9
2024-04-14T04:34:02.844Z,76
2024-04-14T04:35:17.083Z,75.9
2024-04-14T04:36:31.322Z,76
2024-04-14T04:37:45.561Z,76.1
2024-04-14T04:38:59.800Z,76.1
2024-04-14T04:40:14.038Z,76
2024-04-14T04:42:42.516Z,76
2024-04-14T04:43:56.754Z,76
2024-04-14T04:45:10.993Z,76
2024-04-14T04:46:25.231Z,76
2024-04-14T04:47:39.470Z,76
2024-04-14T04:48:53.709Z,75.8
2024-04-14T04:50:07.948Z,75.6
2024-04-14T04:51:22.186Z,76
2024-04-14T04:52:36.425Z,75.8
2024-04-14T04:53:50.664Z,75.8
2024-04-14T04:55:04.902Z,75.8
2024-04-14T04:56:19.141Z,75.8
2024-04-14T04:57:33.380Z,75.8
2024-04-14T04:58:47.618Z,76
2024-04-14T05:00:01.857Z,75.8
2024-04-14T05:01:16.096Z,76
2024-04-14T05:02:30.334Z,75.8
2024-04-14T05:03:44.573Z,75.8
2024-04-14T05:04:58.812Z,75.9
2024-04-14T05:06:13.050Z,76
2024-04-14T05:07:27.289Z,75.8
2024-04-14T05:08:41.528Z,75.8
2024-04-14T05:11:10.005Z,75.7
2024-04-14T05:12:24.243Z,75.5
2024-04-14T05:13:38.482Z,75.8
2024-04-14T05:14:52.720Z,75.9
2024-04-14T05:16:06.959Z,75.7
2024-04-14T05:17:21.198Z,75.7
2024-04-14T05:18:35.436Z,75.7
2024-04-14T05:21:03.914Z,75.4
2024-04-14T05:22:18.152Z,75.3
2024-04-14T05:23:32.391Z,75.2
2024-04-14T05:24:46.629Z,75.4
2024-04-14T05:26:00.868Z,75.3
2024-04-14T05:27:15.107Z,75.4
2024-04-14T05:28:29.345Z,75.5
2024-04-14T05:29:43.584Z,75.3
2024-04-14T05:30:57.822Z,75.2
2024-04-14T05:32:12.061Z,75.2
2024-04-14T05:33:26.300Z,75.3
2024-04-14T05:34:40.538Z,75.3
2024-04-14T05:35:54.777Z,75
2024-04-14T05:37:09.016Z,74.8
2024-04-14T05:38:23.254Z,75.4
2024-04-14T05:39:37.493Z,74.9
2024-04-14T05:40:51.731Z,74.6
2024-04-14T05:42:05.969Z,74.5
2024-04-14T05:43:20.208Z,74
2024-04-14T05:44:34.446Z,74.3
2024-04-14T05:45:48.685Z,74
2024-04-14T05:47:02.924Z,74
2024-04-14T05:48:17.162Z,73.8
2024-04-14T05:49:31.401Z,73.5
2024-04-14T05:50:45.639Z,73.8
2024-04-14T05:51:59.878Z,73.4
2024-04-14T05:53:14.116Z,73.6
2024-04-14T05:54:28.354Z,73.6
2024-04-14T05:55:42.593Z,73.8
2024-04-14T05:56:56.831Z,73.6
2024-04-14T05:58:11.069Z,73.5
2024-04-14T05:59:25.307Z,73.4
2024-04-14T06:00:39.546Z,73.5
2024-04-14T06:01:53.784Z,73.3
2024-04-14T06:03:08.022Z,73.3
2024-04-14T06:04:22.260Z,73.4
2024-04-14T06:05:36.498Z,73.4
2024-04-14T06:06:50.736Z,73
2024-04-14T06:08:04.975Z,73.1
2024-04-14T06:09:19.213Z,73.1
2024-04-14T06:10:33.451Z,73.1
2024-04-14T06:13:01.928Z,73.4
2024-04-14T06:14:16.166Z,73.6
2024-04-14T06:15:30.404Z,73.7
2024-04-14T06:16:44.642Z,73.8
2024-04-14T06:17:58.881Z,74.3
2024-04-14T06:20:27.357Z,74.3
2024-04-14T06:21:41.595Z,74.4
2024-04-14T06:22:55.833Z,74.7
2024-04-14T06:24:10.072Z,74.8
2024-04-14T06:25:24.310Z,74.6
2024-04-14T06:26:38.548Z,74.5
2024-04-14T06:27:52.787Z,74.5
2024-04-14T06:29:07.026Z,74.8
2024-04-14T06:30:21.264Z,74.5
2024-04-14T06:31:35.502Z,75.1
2024-04-14T06:32:49.740Z,75
2024-04-14T06:34:03.978Z,75
2024-04-14T06:35:17.238Z,75.2
2024-04-14T06:36:31.476Z,74.8
2024-04-14T06:37:45.714Z,74.3
2024-04-14T06:38:59.953Z,74.3
2024-04-14T06:40:14.191Z,73.8
2024-04-14T06:41:28.429Z,72.3
2024-04-14T06:42:42.667Z,72.6
2024-04-14T06:43:56.905Z,71.9
2024-04-14T06:45:11.143Z,71.5
2024-04-14T06:46:25.381Z,71.1
2024-04-14T06:47:39.620Z,70.8
2024-04-14T06:48:53.858Z,71.1
2024-04-14T06:50:08.096Z,70.8
2024-04-14T06:51:22.334Z,70.5
2024-04-14T06:52:36.573Z,69.7
2024-04-14T06:53:50.811Z,69.7
2024-04-14T06:55:05.050Z,69.3
2024-04-14T06:56:19.288Z,69.1
2024-04-14T06:57:33.526Z,69.5
2024-04-14T06:58:47.764Z,70.5
2024-04-14T07:00:02.002Z,71.4
2024-04-14T07:01:16.240Z,71.8
2024-04-14T07:02:30.478Z,71.9
2024-04-14T07:04:58.955Z,70.3
2024-04-14T07:07:27.431Z,69.8
2024-04-14T07:08:41.669Z,69.5
2024-04-14T07:09:55.907Z,69
2024-04-14T07:11:10.145Z,68.3
2024-04-14T07:12:24.384Z,68.2
2024-04-14T07:13:38.622Z,67.7
2024-04-14T07:14:52.860Z,67.9
2024-04-14T07:16:07.098Z,67.3
2024-04-14T07:17:21.337Z,66.3
2024-04-14T07:18:35.575Z,66
2024-04-14T07:19:49.813Z,66.2
2024-04-14T07:21:04.051Z,65.2
2024-04-14T07:22:18.289Z,64.9
2024-04-14T07:23:32.527Z,65.5
2024-04-14T07:24:46.765Z,64
2024-04-14T07:26:01.003Z,64.4
2024-04-14T07:27:15.242Z,64
2024-04-14T07:28:29.480Z,64.2
2024-04-14T07:29:43.718Z,64
2024-04-14T07:30:57.956Z,64.5
2024-04-14T07:32:12.194Z,64.9
2024-04-14T07:33:26.432Z,64.9
2024-04-14T07:34:40.670Z,65.5
2024-04-14T07:35:54.908Z,65.8
2024-04-14T07:37:09.147Z,66.5
2024-04-14T07:38:23.385Z,66.3
2024-04-14T07:39:37.624Z,66.2
2024-04-14T07:40:51.862Z,65.7
2024-04-14T07:42:06.100Z,66.1
2024-04-14T07:43:20.338Z,66
2024-04-14T07:44:34.576Z,65.8
2024-04-14T07:45:48.814Z,64.5
2024-04-14T07:47:03.053Z,64.5
2024-04-14T07:49:31.529Z,65
2024-04-14T07:50:45.767Z,64
2024-04-14T07:52:00.005Z,64.4
2024-04-14T07:53:14.243Z,65.7
2024-04-14T07:54:28.481Z,64.9
2024-04-14T07:55:42.719Z,65.4
2024-04-14T07:56:56.958Z,65.8
2024-04-14T07:58:11.196Z,65.5
2024-04-14T07:59:25.434Z,65.8
2024-04-14T08:00:39.672Z,66.2
2024-04-14T08:01:53.910Z,66
2024-04-14T08:03:08.148Z,66.4
2024-04-14T08:04:22.386Z,65.9
2024-04-14T08:05:36.624Z,66.1
2024-04-14T08:06:50.863Z,66.7
2024-04-14T08:08:05.101Z,66.6
2024-04-14T08:09:19.340Z,65.9
2024-04-14T08:10:33.578Z,66.2
2024-04-14T08:11:47.816Z,67.2
2024-04-14T08:13:02.054Z,67.6
2024-04-14T08:14:16.292Z,67.2
2024-04-14T08:15:30.530Z,67
2024-04-14T08:16:44.769Z,66.2
2024-04-14T08:17:59.007Z,66.5
2024-04-14T08:19:13.245Z,67
2024-04-14T08:20:27.483Z,66.8
2024-04-14T08:21:41.721Z,66.3
2024-04-14T08:22:55.959Z,66
2024-04-14T08:24:10.197Z,65
2024-04-14T08:26:38.674Z,62.7
2024-04-14T08:27:52.912Z,62.1
2024-04-14T08:29:07.150Z,62.6
2024-04-14T08:30:21.388Z,62.9
2024-04-14T08:31:35.626Z,62.5
2024-04-14T08:34:04.102Z,61.9
2024-04-14T08:35:18.340Z,61.1
2024-04-14T08:36:32.579Z,60.9
2024-04-14T08:37:46.818Z,61
2024-04-14T08:39:01.056Z,59.7
2024-04-14T08:40:15.294Z,59.5
2024-04-14T08:41:29.533Z,58.3
2024-04-14T08:42:43.771Z,57.2
2024-04-14T08:43:58.009Z,57.2
2024-04-14T08:45:12.248Z,57.7
2024-04-14T08:46:26.486Z,56.1
2024-04-14T08:47:40.725Z,55.9
2024-04-14T08:48:54.963Z,55.5
2024-04-14T08:51:23.440Z,56.7
2024-04-14T08:52:36.700Z,57.1
2024-04-14T08:53:49.954Z,57
2024-04-14T08:55:04.193Z,58.1
2024-04-14T08:56:18.431Z,57.9
2024-04-14T08:57:32.669Z,58
2024-04-14T08:58:46.908Z,57.1
2024-04-14T09:00:01.147Z,56.7
2024-04-14T09:01:15.385Z,57.4
2024-04-14T09:03:43.862Z,57.7
2024-04-14T09:04:58.100Z,57
2024-04-14T09:06:12.339Z,55.9
2024-04-14T09:07:26.577Z,56.1
2024-04-14T09:08:40.816Z,56.1
2024-04-14T09:09:54.070Z,57.4
2024-04-14T09:11:08.309Z,56.5
2024-04-14T09:12:22.547Z,56.8
2024-04-14T09:13:36.786Z,57.1
2024-04-14T09:14:51.024Z,57.3
2024-04-14T09:16:05.262Z,57.5
2024-04-14T09:17:19.501Z,56.4
2024-04-14T09:18:32.761Z,56.1
2024-04-14T09:19:46.015Z,57.9
2024-04-14T09:21:00.254Z,58.2
2024-04-14T09:22:14.493Z,58.3
2024-04-14T09:23:28.731Z,57.2
2024-04-14T09:24:42.969Z,57.3
2024-04-14T09:25:57.208Z,56.1
2024-04-14T09:27:11.446Z,56.7
2024-04-14T09:28:25.685Z,56.1
2024-04-14T09:29:39.923Z,55.3
2024-04-14T09:30:54.161Z,55.4
2024-04-14T09:32:08.400Z,55.6
2024-04-14T09:33:22.639Z,56.3
2024-04-14T09:34:36.877Z,56.5
2024-04-14T09:35:50.132Z,56.4
2024-04-14T09:37:04.370Z,55.5
2024-04-14T09:38:18.609Z,55.6
2024-04-14T09:39:32.847Z,56.1
2024-04-14T09:40:47.085Z,56.4
2024-04-14T09:42:01.324Z,55.8
2024-04-14T09:43:15.563Z,56.1
2024-04-14T09:44:29.802Z,55.6
2024-04-14T09:45:44.040Z,55.6
2024-04-14T09:46:58.278Z,55.9
2024-04-14T09:48:12.517Z,55.5
2024-04-14T09:49:26.755Z,55.3
2024-04-14T09:50:40.994Z,56.6
2024-04-14T09:51:54.248Z,55.5
2024-04-14T09:53:08.486Z,55.6
2024-04-14T09:55:36.964Z,56
2024-04-14T09:56:51.202Z,55.6
2024-04-14T09:58:05.441Z,56.8
2024-04-14T09:59:19.679Z,56.1
2024-04-14T10:00:33.918Z,55.6
2024-04-14T10:01:48.156Z,56.3
2024-04-14T10:03:02.394Z,55.6
2024-04-14T10:04:16.633Z,55.3
2024-04-14T10:05:30.871Z,54.8
2024-04-14T10:06:45.109Z,53.7
2024-04-14T10:07:58.364Z,53.8
2024-04-14T10:09:12.602Z,53.9
2024-04-14T10:10:26.841Z,53.2
2024-04-14T10:11:41.080Z,53
2024-04-14T10:12:55.318Z,53.3
2024-04-14T10:14:09.556Z,53.6
2024-04-14T10:15:23.795Z,52.4
2024-04-14T10:16:38.033Z,51.9
2024-04-14T10:17:52.272Z,51.9
2024-04-14T10:19:06.510Z,52.4
2024-04-14T10:20:20.748Z,52.4
2024-04-14T10:21:34.987Z,52.3
2024-04-14T10:22:49.225Z,52.7
2024-04-14T10:24:02.479Z,54
2024-04-14T10:25:16.719Z,52.5
2024-04-14T10:26:30.957Z,52
2024-04-14T10:27:45.196Z,50.2
2024-04-14T10:28:59.434Z,49.6
2024-04-14T10:30:13.672Z,51.4
2024-04-14T10:31:27.911Z,51.4
2024-04-14T10:32:42.149Z,51.4
2024-04-14T10:33:56.387Z,51
2024-04-14T10:35:10.626Z,50.6
2024-04-14T10:36:24.865Z,49.1
2024-04-14T10:37:39.103Z,49.3
2024-04-14T10:38:53.341Z,49.4
2024-04-14T10:40:06.596Z,48.7
2024-04-14T10:41:20.834Z,48.8
2024-04-14T10:42:35.073Z,48.6
2024-04-14T10:43:48.333Z,48.3
2024-04-14T10:45:02.573Z,47.3
2024-04-14T10:46:16.811Z,46.3
2024-04-14T10:47:31.050Z,46.2
2024-04-14T10:48:45.289Z,46.2
2024-04-14T10:49:59.527Z,46.9
2024-04-14T10:51:13.766Z,46.7
2024-04-14T10:52:28.004Z,47.4
2024-04-14T10:54:56.481Z,49.1
2024-04-14T10:56:10.720Z,48.9
2024-04-14T10:57:24.958Z,48.8
2024-04-14T10:58:39.197Z,49.4
2024-04-14T10:59:52.452Z,48.2
2024-04-14T11:02:20.929Z,49.5
2024-04-14T11:03:35.168Z,49.5
2024-04-14T11:04:49.406Z,49
2024-04-14T11:06:03.645Z,49
2024-04-14T11:07:17.883Z,48.6
2024-04-14T11:08:32.122Z,48
2024-04-14T11:09:46.361Z,46
2024-04-14T11:11:00.599Z,44.5
2024-04-14T11:12:14.837Z,44.1
2024-04-14T11:13:29.076Z,44.6
2024-04-14T11:14:43.313Z,44.3
2024-04-14T11:15:56.568Z,42.2
2024-04-14T11:17:10.806Z,42.6
2024-04-14T11:18:25.044Z,42
2024-04-14T11:19:39.282Z,42.7
2024-04-14T11:20:53.520Z,42
2024-04-14T11:22:07.758Z,42.7
2024-04-14T11:23:21.997Z,42.4
2024-04-14T11:24:36.235Z,43
2024-04-14T11:25:50.473Z,43.6
2024-04-14T11:27:04.711Z,45
2024-04-14T11:28:18.949Z,46.8
2024-04-14T11:29:33.188Z,47
2024-04-14T11:32:01.664Z,42.7
2024-04-14T11:33:14.919Z,41.9
2024-04-14T11:34:29.157Z,42.8
2024-04-14T11:35:43.395Z,43.1
2024-04-14T11:36:57.633Z,44.4
2024-04-14T11:38:11.872Z,43
2024-04-14T11:39:26.110Z,42.7
2024-04-14T11:40:40.348Z,42.9
2024-04-14T11:41:54.587Z,42.9
2024-04-14T11:43:08.825Z,43.5
2024-04-14T11:44:23.063Z,44.2
2024-04-14T11:45:37.301Z,43.6
2024-04-14T11:46:51.539Z,44.3
2024-04-14T11:48:05.778Z,43.6
2024-04-14T11:49:19.032Z,44.4
2024-04-14T11:50:33.270Z,44.9
2024-04-14T11:51:47.508Z,43.3
2024-04-14T11:53:01.747Z,43.2
2024-04-14T11:54:15.985Z,43.7
2024-04-14T11:55:30.223Z,42.6
2024-04-14T11:56:44.461Z,44.2
2024-04-14T11:57:58.700Z,43.3
2024-04-14T11:59:12.938Z,46.3
2024-04-14T12:01:41.415Z,50
2024-04-14T12:04:09.892Z,49.6
2024-04-14T12:05:23.146Z,48.7
2024-04-14T12:06:37.384Z,47.3
2024-04-14T12:07:51.622Z,46.9
2024-04-14T12:09:05.860Z,46.7
2024-04-14T12:10:20.099Z,46.4
2024-04-14T12:11:34.348Z,46.9
2024-04-14T12:12:48.586Z,46.4
2024-04-14T12:14:02.825Z,45.6
2024-04-14T12:15:17.063Z,44.8
2024-04-14T12:16:31.301Z,44.3
2024-04-14T12:17:45.539Z,44.9
2024-04-14T12:18:59.777Z,44.1
2024-04-14T12:20:14.015Z,43.9
2024-04-14T12:21:27.269Z,43.3
2024-04-14T12:22:41.508Z,43.3
2024-04-14T12:23:55.746Z,42.1
2024-04-14T12:25:09.984Z,40.9
2024-04-14T12:26:24.223Z,42.2
2024-04-14T12:27:38.461Z,41.4
2024-04-14T12:28:52.699Z,40.5
2024-04-14T12:30:06.937Z,40.8
2024-04-14T12:31:21.176Z,40.8
2024-04-14T12:32:35.414Z,40.9
2024-04-14T12:33:49.652Z,41.1
2024-04-14T12:35:03.890Z,40.6
2024-04-14T12:36:18.129Z,39.9
2024-04-14T12:37:31.383Z,39.4
2024-04-14T12:38:45.622Z,39.6
2024-04-14T12:39:59.860Z,39.1
2024-04-14T12:41:14.098Z,38.7
2024-04-14T12:42:28.337Z,38.6
2024-04-14T12:43:42.575Z,37.7
2024-04-14T12:44:56.813Z,38.1
2024-04-14T12:46:11.052Z,37.8
2024-04-14T12:47:25.290Z,39
2024-04-14T12:48:39.528Z,38.9
2024-04-14T12:49:53.766Z,38.8
2024-04-14T12:51:08.005Z,38
2024-04-14T12:52:22.243Z,38.7
2024-04-14T12:53:35.497Z,38.1
2024-04-14T12:54:49.735Z,36.8
2024-04-14T12:56:03.973Z,37.3
2024-04-14T12:57:18.212Z,37.5
2024-04-14T12:58:32.450Z,38.8
2024-04-14T12:59:46.688Z,39.5
2024-04-14T13:01:00.926Z,42
2024-04-14T13:02:15.164Z,47
2024-04-14T13:03:29.403Z,50.9
2024-04-14T13:04:43.641Z,51.2
2024-04-14T13:05:57.880Z,52.4
2024-04-14T13:08:26.357Z,49.7
2024-04-14T13:09:39.612Z,49.8
2024-04-14T13:10:53.850Z,49.2
2024-04-14T13:12:08.089Z,49.8
2024-04-14T13:13:22.327Z,50.5
2024-04-14T13:14:36.566Z,52.3
2024-04-14T13:15:50.804Z,52.4
2024-04-14T13:17:05.043Z,53.1
2024-04-14T13:18:19.282Z,53.4
2024-04-14T13:19:33.520Z,52.7
2024-04-14T13:20:47.759Z,52.2
2024-04-14T13:22:01.997Z,52
2024-04-14T13:23:16.236Z,51.6
2024-04-14T13:24:30.474Z,53.2
2024-04-14T13:25:43.729Z,51.1
2024-04-14T13:26:57.967Z,50.1
2024-04-14T13:28:12.206Z,51.3
2024-04-14T13:29:26.445Z,51.8
2024-04-14T13:30:40.684Z,51.5
2024-04-14T13:31:54.923Z,50.4
2024-04-14T13:33:09.161Z,50.2
2024-04-14T13:34:23.400Z,51.4
2024-04-14T13:35:37.638Z,52.1
2024-04-14T13:36:51.877Z,53.2
2024-04-14T13:38:06.116Z,52.1
2024-04-14T13:39:20.355Z,50.8
2024-04-14T13:40:34.593Z,50.5
2024-04-14T13:41:47.848Z,51
2024-04-14T13:43:02.086Z,52
2024-04-14T13:44:16.325Z,51.3
2024-04-14T13:45:30.563Z,50.1
2024-04-14T13:46:44.802Z,50.5
2024-04-14T13:47:59.041Z,51.7
2024-04-14T13:49:13.279Z,52.3
2024-04-14T13:50:27.518Z,51.9
2024-04-14T13:51:41.757Z,51.9
2024-04-14T13:52:55.995Z,52.4
2024-04-14T13:54:10.234Z,51.7
2024-04-14T13:55:24.472Z,50.3
2024-04-14T13:56:38.711Z,50.5
2024-04-14T13:57:51.966Z,50.3
2024-04-14T13:59:06.204Z,50.1
2024-04-14T14:00:20.443Z,50
2024-04-14T14:01:34.682Z,49.1
2024-04-14T14:02:48.921Z,49.6
2024-04-14T14:04:03.159Z,50.6
2024-04-14T14:05:17.398Z,50.9
2024-04-14T14:06:31.637Z,49.2
2024-04-14T14:07:45.875Z,50.1
2024-04-14T14:09:00.114Z,50.7
2024-04-14T14:10:14.352Z,50.9
2024-04-14T14:11:28.591Z,52.4
2024-04-14T14:12:42.830Z,52.2
2024-04-14T14:13:56.085Z,53.3
2024-04-14T14:15:10.323Z,53.5
2024-04-14T14:16:24.562Z,53.1
2024-04-14T14:17:38.800Z,53.7
2024-04-14T14:18:53.039Z,53.8
2024-04-14T14:20:07.277Z,54.2
2024-04-14T14:21:21.516Z,53.8
2024-04-14T14:22:35.755Z,54
2024-04-14T14:25:04.232Z,54
2024-04-14T14:26:18.470Z,53.7
2024-04-14T14:27:32.709Z,53.1
2024-04-14T14:28:46.947Z,52.2
2024-04-14T14:30:00.202Z,53
2024-04-14T14:31:14.441Z,52.1
2024-04-14T14:32:28.679Z,53.9
2024-04-14T14:33:42.918Z,53.6
2024-04-14T14:34:57.157Z,53.5
2024-04-14T14:37:25.634Z,52.5
2024-04-14T14:38:39.872Z,52.6
2024-04-14T14:39:54.111Z,53.2
2024-04-14T14:41:08.349Z,54.1
2024-04-14T14:42:22.588Z,53.2
2024-04-14T14:43:36.826Z,54.1
2024-04-14T14:44:51.065Z,52.4
2024-04-14T14:46:04.320Z,54
2024-04-14T14:47:18.558Z,55
2024-04-14T14:48:32.797Z,53.9
2024-04-14T14:49:47.035Z,54.1
2024-04-14T14:51:01.273Z,53.2
2024-04-14T14:52:14.533Z,53.4
2024-04-14T14:53:28.772Z,53.3
2024-04-14T14:54:43.010Z,53.8
2024-04-14T14:55:57.249Z,53.3
2024-04-14T14:57:11.487Z,54.1
2024-04-14T14:58:25.726Z,53.6
2024-04-14T14:59:39.964Z,52.7
2024-04-14T15:00:54.203Z,53.4
2024-04-14T15:02:08.441Z,53.1
2024-04-14T15:03:22.680Z,52.4
2024-04-14T15:04:36.918Z,53
2024-04-14T15:05:51.157Z,53.9
2024-04-14T15:07:05.395Z,55
2024-04-14T15:08:18.650Z,53.7
2024-04-14T15:09:32.888Z,54
2024-04-14T15:10:47.126Z,53.6
2024-04-14T15:12:01.365Z,54.3
2024-04-14T15:13:15.604Z,53.5
2024-04-14T15:14:29.843Z,53.9
2024-04-14T15:15:44.081Z,54.4
2024-04-14T15:16:58.320Z,53.2
2024-04-14T15:18:12.558Z,54.1
2024-04-14T15:19:26.796Z,55
2024-04-14T15:20:41.035Z,55.3
2024-04-14T15:21:55.273Z,51.8
2024-04-14T15:23:09.511Z,53.2
2024-04-14T15:24:22.766Z,52.1
2024-04-14T15:25:37.004Z,53.4
2024-04-14T15:26:51.242Z,53.6
2024-04-14T15:28:05.481Z,52.4
2024-04-14T15:29:19.719Z,52.2
2024-04-14T15:30:33.958Z,51.9
2024-04-14T15:31:48.196Z,52.1
2024-04-14T15:33:02.434Z,52.8
2024-04-14T15:34:16.673Z,52.8
2024-04-14T15:35:30.911Z,53.3
2024-04-14T15:36:45.149Z,53.3
2024-04-14T15:37:59.388Z,53.7
2024-04-14T15:39:13.626Z,52.8
2024-04-14T15:40:26.881Z,52.5
2024-04-14T15:41:41.119Z,52.5
2024-04-14T15:42:55.357Z,52.5
2024-04-14T15:44:09.595Z,53.1
2024-04-14T15:45:23.834Z,53.1
2024-04-14T15:46:38.072Z,53.2
2024-04-14T15:47:52.310Z,53.1
2024-04-14T15:49:06.549Z,52.9
2024-04-14T15:50:20.787Z,52.4
2024-04-14T15:51:35.025Z,52.6
2024-04-14T15:52:49.264Z,51.7
2024-04-14T15:54:03.502Z,52.1
2024-04-14T15:55:17.740Z,51.8
2024-04-14T15:56:30.995Z,52.5
2024-04-14T15:57:45.233Z,52
2024-04-14T15:58:59.471Z,52.3
2024-04-14T16:00:13.710Z,52.2
2024-04-14T16:01:27.948Z,53
2024-04-14T16:02:42.186Z,52.7
2024-04-14T16:03:56.424Z,52.4
2024-04-14T16:05:10.663Z,52.7
2024-04-14T16:06:24.901Z,51.7
2024-04-14T16:07:39.139Z,52.3
2024-04-14T16:08:53.377Z,52.6
2024-04-14T16:10:07.616Z,53
2024-04-14T16:11:21.854Z,52.8
2024-04-14T16:12:35.108Z,53.8
2024-04-14T16:13:49.347Z,53
2024-04-14T16:15:03.585Z,52.9
2024-04-14T16:16:17.823Z,52.5
2024-04-14T16:17:32.061Z,52.9
2024-04-14T16:18:46.299Z,53.1
2024-04-14T16:20:00.538Z,53.2
2024-04-14T16:21:14.776Z,53.7
2024-04-14T16:22:29.014Z,53.1
2024-04-14T16:23:43.254Z,52.9
2024-04-14T16:24:57.492Z,53.9
2024-04-14T16:26:11.730Z,53.6
2024-04-14T16:27:25.968Z,54
2024-04-14T16:28:39.223Z,54.2
2024-04-14T16:29:53.461Z,54.4
2024-04-14T16:31:07.699Z,55.3
2024-04-14T16:32:21.938Z,55.3
2024-04-14T16:33:36.176Z,55.6
2024-04-14T16:34:50.414Z,55.7
2024-04-14T16:36:04.652Z,56.8
2024-04-14T16:37:18.890Z,57
2024-04-14T16:38:33.128Z,55.7
2024-04-14T16:39:47.367Z,56.7
2024-04-14T16:41:01.605Z,56.7
2024-04-14T16:42:15.843Z,56.1
2024-04-14T16:43:30.081Z,56.2
2024-04-14T16:44:43.336Z,56.8
2024-04-14T16:45:57.574Z,57
2024-04-14T16:47:11.813Z,56.6
2024-04-14T16:48:26.051Z,56.5
2024-04-14T16:49:40.289Z,56.6
2024-04-14T16:50:54.527Z,56.7
2024-04-14T16:53:23.004Z,56.2
2024-04-14T16:54:37.242Z,56.9
2024-04-14T16:55:51.480Z,57.2
2024-04-14T16:57:05.718Z,56.4
2024-04-14T16:58:19.956Z,56.5
2024-04-14T16:59:34.194Z,56.3
2024-04-14T17:00:47.449Z,56
2024-04-14T17:02:01.687Z,55.8
2024-04-14T17:03:15.925Z,56
2024-04-14T17:04:30.164Z,54
2024-04-14T17:05:44.402Z,54.7
2024-04-14T17:06:58.640Z,53.9
2024-04-14T17:08:12.878Z,54
2024-04-14T17:09:27.116Z,54.5